sensor_id;sensor_type;location;lat;lon;timestamp;temperature;humidity
30594;DHT22;33199;47.590;8.300;2023-05-10T00:00:13;18.70;82.10
30594;DHT22;33199;47.590;8.300;2023-05-10T00:02:39;18.70;82.10
30594;DHT22;33199;47.590;8.300;2023-05-10T00:05:05;18.70;82.20
30594;DHT22;33199;47.590;8.300;2023-05-10T00:07:31;18.70;82.30
30594;DHT22;33199;47.590;8.300;2023-05-10T00:09:56;18.60;82.30
30594;DHT22;33199;47.590;8.300;2023-05-10T00:12:22;18.60;82.00
30594;DHT22;33199;47.590;8.300;2023-05-10T00:14:47;18.60;82.00
30594;DHT22;33199;47.590;8.300;2023-05-10T00:17:13;18.60;81.90
30594;DHT22;33199;47.590;8.300;2023-05-10T00:19:38;18.70;82.10
30594;DHT22;33199;47.590;8.300;2023-05-10T00:22:04;18.60;82.10
30594;DHT22;33199;47.590;8.300;2023-05-10T00:24:29;18.60;82.10
30594;DHT22;33199;47.590;8.300;2023-05-10T00:26:55;18.60;81.80
30594;DHT22;33199;47.590;8.300;2023-05-10T00:29:20;18.70;81.80
30594;DHT22;33199;47.590;8.300;2023-05-10T00:31:46;18.60;81.50
30594;DHT22;33199;47.590;8.300;2023-05-10T00:34:11;18.60;81.80
30594;DHT22;33199;47.590;8.300;2023-05-10T00:36:37;18.60;81.30
30594;DHT22;33199;47.590;8.300;2023-05-10T00:39:02;18.60;81.70
30594;DHT22;33199;47.590;8.300;2023-05-10T00:41:29;18.60;82.10
30594;DHT22;33199;47.590;8.300;2023-05-10T00:43:54;18.60;81.70
30594;DHT22;33199;47.590;8.300;2023-05-10T00:46:20;18.60;81.80
30594;DHT22;33199;47.590;8.300;2023-05-10T00:48:46;18.60;81.70
30594;DHT22;33199;47.590;8.300;2023-05-10T00:51:12;18.60;81.50
30594;DHT22;33199;47.590;8.300;2023-05-10T00:53:38;18.60;81.60
30594;DHT22;33199;47.590;8.300;2023-05-10T00:56:04;18.60;81.70
30594;DHT22;33199;47.590;8.300;2023-05-10T00:58:29;18.60;81.60
30594;DHT22;33199;47.590;8.300;2023-05-10T01:00:56;18.50;81.60
30594;DHT22;33199;47.590;8.300;2023-05-10T01:03:22;18.50;81.50
30594;DHT22;33199;47.590;8.300;2023-05-10T01:05:48;18.50;81.80
30594;DHT22;33199;47.590;8.300;2023-05-10T01:08:14;18.50;81.60
30594;DHT22;33199;47.590;8.300;2023-05-10T01:10:39;18.50;81.40
30594;DHT22;33199;47.590;8.300;2023-05-10T01:13:06;18.50;81.60
30594;DHT22;33199;47.590;8.300;2023-05-10T01:15:32;18.50;81.40
30594;DHT22;33199;47.590;8.300;2023-05-10T01:17:58;18.50;81.40
30594;DHT22;33199;47.590;8.300;2023-05-10T01:20:24;18.50;81.40
30594;DHT22;33199;47.590;8.300;2023-05-10T01:25:42;18.50;81.40
30594;DHT22;33199;47.590;8.300;2023-05-10T01:28:21;18.50;81.10
30594;DHT22;33199;47.590;8.300;2023-05-10T01:31:01;18.50;81.40
30594;DHT22;33199;47.590;8.300;2023-05-10T01:34:02;18.50;81.40
30594;DHT22;33199;47.590;8.300;2023-05-10T01:36:30;18.50;81.30
30594;DHT22;33199;47.590;8.300;2023-05-10T01:39:01;18.50;81.60
30594;DHT22;33199;47.590;8.300;2023-05-10T01:41:33;18.50;81.30
30594;DHT22;33199;47.590;8.300;2023-05-10T01:46:37;18.50;81.40
30594;DHT22;33199;47.590;8.300;2023-05-10T01:49:07;18.50;81.40
30594;DHT22;33199;47.590;8.300;2023-05-10T01:51:40;18.50;81.10
30594;DHT22;33199;47.590;8.300;2023-05-10T01:54:07;18.50;81.40
30594;DHT22;33199;47.590;8.300;2023-05-10T01:56:33;18.50;81.30
30594;DHT22;33199;47.590;8.300;2023-05-10T01:59:00;18.50;81.20
30594;DHT22;33199;47.590;8.300;2023-05-10T02:01:27;18.40;81.00
30594;DHT22;33199;47.590;8.300;2023-05-10T02:03:53;18.50;81.20
30594;DHT22;33199;47.590;8.300;2023-05-10T02:06:19;18.40;81.20
30594;DHT22;33199;47.590;8.300;2023-05-10T02:08:45;18.50;81.10
30594;DHT22;33199;47.590;8.300;2023-05-10T02:11:12;18.40;81.10
30594;DHT22;33199;47.590;8.300;2023-05-10T02:13:38;18.40;81.00
30594;DHT22;33199;47.590;8.300;2023-05-10T02:16:04;18.40;81.00
30594;DHT22;33199;47.590;8.300;2023-05-10T02:18:30;18.40;81.20
30594;DHT22;33199;47.590;8.300;2023-05-10T02:20:56;18.40;81.20
30594;DHT22;33199;47.590;8.300;2023-05-10T02:23:22;18.40;81.00
30594;DHT22;33199;47.590;8.300;2023-05-10T02:25:48;18.40;80.90
30594;DHT22;33199;47.590;8.300;2023-05-10T02:28:14;18.40;80.90
30594;DHT22;33199;47.590;8.300;2023-05-10T02:30:40;18.40;80.90
30594;DHT22;33199;47.590;8.300;2023-05-10T02:33:06;18.40;80.70
30594;DHT22;33199;47.590;8.300;2023-05-10T02:35:32;18.40;80.70
30594;DHT22;33199;47.590;8.300;2023-05-10T02:37:58;18.40;80.70
30594;DHT22;33199;47.590;8.300;2023-05-10T02:40:25;18.40;80.70
30594;DHT22;33199;47.590;8.300;2023-05-10T02:42:52;18.40;81.00
30594;DHT22;33199;47.590;8.300;2023-05-10T02:45:20;18.30;80.70
30594;DHT22;33199;47.590;8.300;2023-05-10T02:47:47;18.40;80.70
30594;DHT22;33199;47.590;8.300;2023-05-10T02:50:12;18.40;80.60
30594;DHT22;33199;47.590;8.300;2023-05-10T02:52:46;18.40;80.90
30594;DHT22;33199;47.590;8.300;2023-05-10T02:55:13;18.40;80.50
30594;DHT22;33199;47.590;8.300;2023-05-10T02:57:46;18.40;80.50
30594;DHT22;33199;47.590;8.300;2023-05-10T03:00:14;18.30;80.50
30594;DHT22;33199;47.590;8.300;2023-05-10T03:02:39;18.40;80.60
30594;DHT22;33199;47.590;8.300;2023-05-10T03:05:05;18.30;80.60
30594;DHT22;33199;47.590;8.300;2023-05-10T03:07:30;18.30;80.40
30594;DHT22;33199;47.590;8.300;2023-05-10T03:09:56;18.30;80.40
30594;DHT22;33199;47.590;8.300;2023-05-10T03:17:23;18.30;80.60
30594;DHT22;33199;47.590;8.300;2023-05-10T03:19:56;18.30;80.30
30594;DHT22;33199;47.590;8.300;2023-05-10T03:22:26;18.30;80.40
30594;DHT22;33199;47.590;8.300;2023-05-10T03:24:55;18.30;80.40
30594;DHT22;33199;47.590;8.300;2023-05-10T03:27:22;18.30;80.50
30594;DHT22;33199;47.590;8.300;2023-05-10T03:29:48;18.30;80.30
30594;DHT22;33199;47.590;8.300;2023-05-10T03:32:16;18.30;80.40
30594;DHT22;33199;47.590;8.300;2023-05-10T03:34:42;18.30;80.30
30594;DHT22;33199;47.590;8.300;2023-05-10T03:37:08;18.30;80.20
30594;DHT22;33199;47.590;8.300;2023-05-10T03:39:34;18.20;80.30
30594;DHT22;33199;47.590;8.300;2023-05-10T03:42:00;18.30;80.20
30594;DHT22;33199;47.590;8.300;2023-05-10T03:44:26;18.30;80.20
30594;DHT22;33199;47.590;8.300;2023-05-10T03:46:52;18.30;80.30
30594;DHT22;33199;47.590;8.300;2023-05-10T03:49:18;18.20;80.10
30594;DHT22;33199;47.590;8.300;2023-05-10T03:51:43;18.20;80.20
30594;DHT22;33199;47.590;8.300;2023-05-10T03:54:09;18.20;80.10
30594;DHT22;33199;47.590;8.300;2023-05-10T03:56:34;18.20;80.10
30594;DHT22;33199;47.590;8.300;2023-05-10T03:58:59;18.20;80.10
30594;DHT22;33199;47.590;8.300;2023-05-10T04:01:25;18.20;80.10
30594;DHT22;33199;47.590;8.300;2023-05-10T04:03:51;18.20;80.10
30594;DHT22;33199;47.590;8.300;2023-05-10T04:06:16;18.20;80.00
30594;DHT22;33199;47.590;8.300;2023-05-10T04:08:42;18.20;80.00
30594;DHT22;33199;47.590;8.300;2023-05-10T04:11:08;18.20;79.90
30594;DHT22;33199;47.590;8.300;2023-05-10T04:13:34;18.20;79.90
30594;DHT22;33199;47.590;8.300;2023-05-10T04:16:00;18.20;79.90
30594;DHT22;33199;47.590;8.300;2023-05-10T04:18:25;18.20;80.00
30594;DHT22;33199;47.590;8.300;2023-05-10T04:20:51;18.20;80.10
30594;DHT22;33199;47.590;8.300;2023-05-10T04:23:16;18.20;80.00
30594;DHT22;33199;47.590;8.300;2023-05-10T04:25:42;18.20;79.90
30594;DHT22;33199;47.590;8.300;2023-05-10T04:28:14;18.20;80.00
30594;DHT22;33199;47.590;8.300;2023-05-10T04:30:39;18.20;78.60
30594;DHT22;33199;47.590;8.300;2023-05-10T04:33:05;18.10;75.70
30594;DHT22;33199;47.590;8.300;2023-05-10T04:35:31;18.00;76.30
30594;DHT22;33199;47.590;8.300;2023-05-10T04:37:56;18.00;77.00
30594;DHT22;33199;47.590;8.300;2023-05-10T04:40:22;17.90;78.00
30594;DHT22;33199;47.590;8.300;2023-05-10T04:42:47;17.90;78.20
30594;DHT22;33199;47.590;8.300;2023-05-10T04:45:14;17.90;78.40
30594;DHT22;33199;47.590;8.300;2023-05-10T04:47:40;17.90;78.20
30594;DHT22;33199;47.590;8.300;2023-05-10T04:50:05;17.90;78.00
30594;DHT22;33199;47.590;8.300;2023-05-10T04:52:31;17.90;78.00
30594;DHT22;33199;47.590;8.300;2023-05-10T04:54:57;17.90;78.20
30594;DHT22;33199;47.590;8.300;2023-05-10T04:57:22;17.90;78.50
30594;DHT22;33199;47.590;8.300;2023-05-10T04:59:48;17.90;78.70
30594;DHT22;33199;47.590;8.300;2023-05-10T05:02:13;17.90;78.70
30594;DHT22;33199;47.590;8.300;2023-05-10T05:04:39;17.90;79.10
30594;DHT22;33199;47.590;8.300;2023-05-10T05:07:04;17.90;79.20
30594;DHT22;33199;47.590;8.300;2023-05-10T05:09:30;17.90;79.20
30594;DHT22;33199;47.590;8.300;2023-05-10T05:11:57;17.90;79.30
30594;DHT22;33199;47.590;8.300;2023-05-10T05:14:22;17.90;79.30
30594;DHT22;33199;47.590;8.300;2023-05-10T05:16:53;17.90;79.30
30594;DHT22;33199;47.590;8.300;2023-05-10T05:19:18;17.90;79.40
30594;DHT22;33199;47.590;8.300;2023-05-10T05:21:44;17.90;79.40
30594;DHT22;33199;47.590;8.300;2023-05-10T05:24:09;17.80;79.40
30594;DHT22;33199;47.590;8.300;2023-05-10T05:26:37;17.80;79.40
30594;DHT22;33199;47.590;8.300;2023-05-10T05:29:02;17.80;79.40
30594;DHT22;33199;47.590;8.300;2023-05-10T05:31:28;17.80;79.50
30594;DHT22;33199;47.590;8.300;2023-05-10T05:33:54;17.80;79.50
30594;DHT22;33199;47.590;8.300;2023-05-10T05:36:19;17.80;79.40
30594;DHT22;33199;47.590;8.300;2023-05-10T05:38:45;17.80;79.70
30594;DHT22;33199;47.590;8.300;2023-05-10T05:41:15;17.80;79.60
30594;DHT22;33199;47.590;8.300;2023-05-10T05:43:41;17.80;79.60
30594;DHT22;33199;47.590;8.300;2023-05-10T05:46:06;17.80;79.60
30594;DHT22;33199;47.590;8.300;2023-05-10T05:48:32;17.80;79.80
30594;DHT22;33199;47.590;8.300;2023-05-10T05:50:57;17.80;80.30
30594;DHT22;33199;47.590;8.300;2023-05-10T05:53:23;17.80;79.60
30594;DHT22;33199;47.590;8.300;2023-05-10T05:55:55;17.80;79.70
30594;DHT22;33199;47.590;8.300;2023-05-10T05:58:24;17.80;79.60
30594;DHT22;33199;47.590;8.300;2023-05-10T06:00:50;17.80;79.80
30594;DHT22;33199;47.590;8.300;2023-05-10T06:03:17;17.80;79.80
30594;DHT22;33199;47.590;8.300;2023-05-10T06:05:43;17.80;79.70
30594;DHT22;33199;47.590;8.300;2023-05-10T06:08:08;17.80;79.90
30594;DHT22;33199;47.590;8.300;2023-05-10T06:10:34;17.80;79.80
30594;DHT22;33199;47.590;8.300;2023-05-10T06:12:59;17.70;79.60
30594;DHT22;33199;47.590;8.300;2023-05-10T06:15:25;17.80;79.80
30594;DHT22;33199;47.590;8.300;2023-05-10T06:17:51;17.80;79.80
30594;DHT22;33199;47.590;8.300;2023-05-10T06:20:16;17.70;79.60
30594;DHT22;33199;47.590;8.300;2023-05-10T06:22:42;17.80;80.10
30594;DHT22;33199;47.590;8.300;2023-05-10T06:25:08;17.70;79.70
30594;DHT22;33199;47.590;8.300;2023-05-10T06:27:33;17.70;79.60
30594;DHT22;33199;47.590;8.300;2023-05-10T06:29:59;17.70;79.80
30594;DHT22;33199;47.590;8.300;2023-05-10T06:32:25;17.70;79.60
30594;DHT22;33199;47.590;8.300;2023-05-10T06:34:50;17.70;79.70
30594;DHT22;33199;47.590;8.300;2023-05-10T06:37:16;17.70;79.70
30594;DHT22;33199;47.590;8.300;2023-05-10T06:39:42;17.70;79.70
30594;DHT22;33199;47.590;8.300;2023-05-10T06:42:07;17.70;79.80
30594;DHT22;33199;47.590;8.300;2023-05-10T06:44:33;17.70;79.70
30594;DHT22;33199;47.590;8.300;2023-05-10T06:46:58;17.70;79.90
30594;DHT22;33199;47.590;8.300;2023-05-10T06:49:24;17.70;79.90
30594;DHT22;33199;47.590;8.300;2023-05-10T06:51:49;17.70;79.50
30594;DHT22;33199;47.590;8.300;2023-05-10T06:54:15;17.70;79.50
30594;DHT22;33199;47.590;8.300;2023-05-10T06:56:40;17.70;79.90
30594;DHT22;33199;47.590;8.300;2023-05-10T06:59:06;17.70;79.70
30594;DHT22;33199;47.590;8.300;2023-05-10T07:01:31;17.60;79.50
30594;DHT22;33199;47.590;8.300;2023-05-10T07:03:57;17.70;79.70
30594;DHT22;33199;47.590;8.300;2023-05-10T07:06:22;17.60;79.80
30594;DHT22;33199;47.590;8.300;2023-05-10T07:08:48;17.60;79.80
30594;DHT22;33199;47.590;8.300;2023-05-10T07:11:13;17.70;79.40
30594;DHT22;33199;47.590;8.300;2023-05-10T07:13:39;17.60;79.50
30594;DHT22;33199;47.590;8.300;2023-05-10T07:16:06;17.60;79.50
30594;DHT22;33199;47.590;8.300;2023-05-10T07:18:32;17.60;79.90
30594;DHT22;33199;47.590;8.300;2023-05-10T07:20:58;17.60;79.30
30594;DHT22;33199;47.590;8.300;2023-05-10T07:23:24;17.60;79.40
30594;DHT22;33199;47.590;8.300;2023-05-10T07:25:49;17.60;79.40
30594;DHT22;33199;47.590;8.300;2023-05-10T07:28:16;17.60;79.30
30594;DHT22;33199;47.590;8.300;2023-05-10T07:30:42;17.60;79.40
30594;DHT22;33199;47.590;8.300;2023-05-10T07:33:08;17.60;80.20
30594;DHT22;33199;47.590;8.300;2023-05-10T07:35:34;17.60;79.20
30594;DHT22;33199;47.590;8.300;2023-05-10T07:38:02;17.60;79.30
30594;DHT22;33199;47.590;8.300;2023-05-10T07:40:28;17.60;78.90
30594;DHT22;33199;47.590;8.300;2023-05-10T07:42:53;17.50;75.00
30594;DHT22;33199;47.590;8.300;2023-05-10T07:45:19;17.40;73.70
30594;DHT22;33199;47.590;8.300;2023-05-10T07:47:44;17.30;74.00
30594;DHT22;33199;47.590;8.300;2023-05-10T07:50:10;17.30;74.70
30594;DHT22;33199;47.590;8.300;2023-05-10T07:52:35;17.20;74.80
30594;DHT22;33199;47.590;8.300;2023-05-10T07:55:01;17.20;74.90
30594;DHT22;33199;47.590;8.300;2023-05-10T07:57:26;17.20;75.20
30594;DHT22;33199;47.590;8.300;2023-05-10T07:59:52;17.20;75.40
30594;DHT22;33199;47.590;8.300;2023-05-10T08:02:17;17.20;75.60
30594;DHT22;33199;47.590;8.300;2023-05-10T08:04:43;17.20;75.70
30594;DHT22;33199;47.590;8.300;2023-05-10T08:07:08;17.30;76.00
30594;DHT22;33199;47.590;8.300;2023-05-10T08:09:34;17.20;76.20
30594;DHT22;33199;47.590;8.300;2023-05-10T08:12:00;17.20;76.40
30594;DHT22;33199;47.590;8.300;2023-05-10T08:14:26;17.30;76.80
30594;DHT22;33199;47.590;8.300;2023-05-10T08:16:52;17.30;76.90
30594;DHT22;33199;47.590;8.300;2023-05-10T08:19:17;17.30;77.30
30594;DHT22;33199;47.590;8.300;2023-05-10T08:21:45;17.30;77.70
30594;DHT22;33199;47.590;8.300;2023-05-10T08:24:10;17.30;77.70
30594;DHT22;33199;47.590;8.300;2023-05-10T08:26:36;17.30;77.80
30594;DHT22;33199;47.590;8.300;2023-05-10T08:29:01;17.30;77.70
30594;DHT22;33199;47.590;8.300;2023-05-10T08:31:27;17.30;77.80
30594;DHT22;33199;47.590;8.300;2023-05-10T08:33:52;17.30;77.80
30594;DHT22;33199;47.590;8.300;2023-05-10T08:36:18;17.30;77.90
30594;DHT22;33199;47.590;8.300;2023-05-10T08:38:47;17.30;77.80
30594;DHT22;33199;47.590;8.300;2023-05-10T08:41:13;17.20;77.70
30594;DHT22;33199;47.590;8.300;2023-05-10T08:43:38;17.30;77.80
30594;DHT22;33199;47.590;8.300;2023-05-10T08:46:04;17.30;77.80
30594;DHT22;33199;47.590;8.300;2023-05-10T08:48:30;17.30;78.00
30594;DHT22;33199;47.590;8.300;2023-05-10T08:50:58;17.30;77.80
30594;DHT22;33199;47.590;8.300;2023-05-10T08:53:25;17.30;77.70
30594;DHT22;33199;47.590;8.300;2023-05-10T08:55:52;17.20;77.60
30594;DHT22;33199;47.590;8.300;2023-05-10T08:58:18;17.20;77.50
30594;DHT22;33199;47.590;8.300;2023-05-10T09:00:44;17.20;77.60
30594;DHT22;33199;47.590;8.300;2023-05-10T09:03:10;17.30;77.80
30594;DHT22;33199;47.590;8.300;2023-05-10T09:05:36;17.20;77.60
30594;DHT22;33199;47.590;8.300;2023-05-10T09:08:02;17.20;77.60
30594;DHT22;33199;47.590;8.300;2023-05-10T09:10:27;17.20;77.60
30594;DHT22;33199;47.590;8.300;2023-05-10T09:12:55;17.30;77.80
30594;DHT22;33199;47.590;8.300;2023-05-10T09:15:21;17.30;77.80
30594;DHT22;33199;47.590;8.300;2023-05-10T09:17:47;17.30;77.80
30594;DHT22;33199;47.590;8.300;2023-05-10T09:20:14;17.20;77.60
30594;DHT22;33199;47.590;8.300;2023-05-10T09:22:39;17.30;77.80
30594;DHT22;33199;47.590;8.300;2023-05-10T09:25:06;17.30;77.70
30594;DHT22;33199;47.590;8.300;2023-05-10T09:27:32;17.20;77.70
30594;DHT22;33199;47.590;8.300;2023-05-10T09:29:58;17.20;77.70
30594;DHT22;33199;47.590;8.300;2023-05-10T09:32:39;17.20;77.60
30594;DHT22;33199;47.590;8.300;2023-05-10T09:35:15;17.20;77.60
30594;DHT22;33199;47.590;8.300;2023-05-10T09:37:42;17.20;77.70
30594;DHT22;33199;47.590;8.300;2023-05-10T09:40:11;17.20;77.60
30594;DHT22;33199;47.590;8.300;2023-05-10T09:42:36;17.20;77.60
30594;DHT22;33199;47.590;8.300;2023-05-10T09:45:05;17.20;77.60
30594;DHT22;33199;47.590;8.300;2023-05-10T09:47:34;17.20;77.50
30594;DHT22;33199;47.590;8.300;2023-05-10T09:50:00;17.20;77.50
30594;DHT22;33199;47.590;8.300;2023-05-10T09:52:30;17.20;77.50
30594;DHT22;33199;47.590;8.300;2023-05-10T09:54:55;17.20;77.50
30594;DHT22;33199;47.590;8.300;2023-05-10T09:57:21;17.20;77.60
30594;DHT22;33199;47.590;8.300;2023-05-10T09:59:47;17.20;77.50
30594;DHT22;33199;47.590;8.300;2023-05-10T10:02:13;17.20;77.50
30594;DHT22;33199;47.590;8.300;2023-05-10T10:04:39;17.20;77.50
30594;DHT22;33199;47.590;8.300;2023-05-10T10:07:04;17.20;77.50
30594;DHT22;33199;47.590;8.300;2023-05-10T10:09:31;17.20;77.50
30594;DHT22;33199;47.590;8.300;2023-05-10T10:11:56;17.20;77.50
30594;DHT22;33199;47.590;8.300;2023-05-10T10:14:22;17.20;77.50
30594;DHT22;33199;47.590;8.300;2023-05-10T10:16:49;17.20;77.50
30594;DHT22;33199;47.590;8.300;2023-05-10T10:19:15;17.20;75.80
30594;DHT22;33199;47.590;8.300;2023-05-10T10:21:41;17.10;69.60
30594;DHT22;33199;47.590;8.300;2023-05-10T10:24:07;17.10;68.30
30594;DHT22;33199;47.590;8.300;2023-05-10T10:26:33;17.10;69.80
30594;DHT22;33199;47.590;8.300;2023-05-10T10:29:12;17.10;71.10
30594;DHT22;33199;47.590;8.300;2023-05-10T10:34:10;17.10;72.20
30594;DHT22;33199;47.590;8.300;2023-05-10T10:36:45;17.00;73.20
30594;DHT22;33199;47.590;8.300;2023-05-10T10:39:11;17.10;73.40
30594;DHT22;33199;47.590;8.300;2023-05-10T10:41:39;17.10;73.80
30594;DHT22;33199;47.590;8.300;2023-05-10T10:49:37;17.10;74.40
30594;DHT22;33199;47.590;8.300;2023-05-10T10:55:02;17.10;74.40
30594;DHT22;33199;47.590;8.300;2023-05-10T10:57:33;17.10;74.70
30594;DHT22;33199;47.590;8.300;2023-05-10T11:07:58;17.10;74.80
30594;DHT22;33199;47.590;8.300;2023-05-10T11:10:25;17.10;75.10
30594;DHT22;33199;47.590;8.300;2023-05-10T11:13:00;17.10;75.10
30594;DHT22;33199;47.590;8.300;2023-05-10T11:15:36;17.10;75.00
30594;DHT22;33199;47.590;8.300;2023-05-10T11:18:17;17.10;75.10
30594;DHT22;33199;47.590;8.300;2023-05-10T11:20:44;17.10;75.10
30594;DHT22;33199;47.590;8.300;2023-05-10T11:23:12;17.10;75.10
30594;DHT22;33199;47.590;8.300;2023-05-10T11:25:42;17.10;75.10
30594;DHT22;33199;47.590;8.300;2023-05-10T11:28:08;17.10;75.20
30594;DHT22;33199;47.590;8.300;2023-05-10T11:30:33;17.10;75.30
30594;DHT22;33199;47.590;8.300;2023-05-10T11:32:59;17.10;75.30
30594;DHT22;33199;47.590;8.300;2023-05-10T11:35:27;17.10;75.30
30594;DHT22;33199;47.590;8.300;2023-05-10T11:37:52;17.10;75.30
30594;DHT22;33199;47.590;8.300;2023-05-10T11:40:18;17.10;75.40
30594;DHT22;33199;47.590;8.300;2023-05-10T11:42:44;17.10;75.40
30594;DHT22;33199;47.590;8.300;2023-05-10T11:45:10;17.10;75.40
30594;DHT22;33199;47.590;8.300;2023-05-10T11:47:44;17.10;75.40
30594;DHT22;33199;47.590;8.300;2023-05-10T11:50:10;17.10;75.50
30594;DHT22;33199;47.590;8.300;2023-05-10T11:52:36;17.10;75.40
30594;DHT22;33199;47.590;8.300;2023-05-10T11:55:02;17.10;75.40
30594;DHT22;33199;47.590;8.300;2023-05-10T11:57:28;17.10;75.40
30594;DHT22;33199;47.590;8.300;2023-05-10T11:59:54;17.10;75.30
30594;DHT22;33199;47.590;8.300;2023-05-10T12:02:20;17.10;75.30
30594;DHT22;33199;47.590;8.300;2023-05-10T12:04:46;17.10;75.40
30594;DHT22;33199;47.590;8.300;2023-05-10T12:07:11;17.10;75.30
30594;DHT22;33199;47.590;8.300;2023-05-10T12:09:37;17.10;75.30
30594;DHT22;33199;47.590;8.300;2023-05-10T12:12:07;17.10;75.30
30594;DHT22;33199;47.590;8.300;2023-05-10T12:14:35;17.10;75.30
30594;DHT22;33199;47.590;8.300;2023-05-10T12:17:01;17.10;75.30
30594;DHT22;33199;47.590;8.300;2023-05-10T12:19:26;17.10;75.40
30594;DHT22;33199;47.590;8.300;2023-05-10T12:21:52;17.10;75.40
30594;DHT22;33199;47.590;8.300;2023-05-10T12:24:17;17.10;75.40
30594;DHT22;33199;47.590;8.300;2023-05-10T12:26:47;17.10;75.40
30594;DHT22;33199;47.590;8.300;2023-05-10T12:31:48;17.10;75.30
30594;DHT22;33199;47.590;8.300;2023-05-10T12:34:22;17.10;75.40
30594;DHT22;33199;47.590;8.300;2023-05-10T12:36:49;17.10;75.30
30594;DHT22;33199;47.590;8.300;2023-05-10T12:39:15;17.10;75.30
30594;DHT22;33199;47.590;8.300;2023-05-10T12:41:40;17.10;75.40
30594;DHT22;33199;47.590;8.300;2023-05-10T12:44:06;17.10;75.30
30594;DHT22;33199;47.590;8.300;2023-05-10T12:46:31;17.10;75.40
30594;DHT22;33199;47.590;8.300;2023-05-10T12:48:57;17.10;75.40
30594;DHT22;33199;47.590;8.300;2023-05-10T12:51:23;17.10;75.40
30594;DHT22;33199;47.590;8.300;2023-05-10T12:53:48;17.10;75.40
30594;DHT22;33199;47.590;8.300;2023-05-10T12:56:14;17.10;75.40
30594;DHT22;33199;47.590;8.300;2023-05-10T12:58:39;17.10;75.40
30594;DHT22;33199;47.590;8.300;2023-05-10T13:01:05;17.10;75.40
30594;DHT22;33199;47.590;8.300;2023-05-10T13:03:30;17.10;75.40
30594;DHT22;33199;47.590;8.300;2023-05-10T13:05:56;17.10;75.30
30594;DHT22;33199;47.590;8.300;2023-05-10T13:08:21;17.10;75.50
30594;DHT22;33199;47.590;8.300;2023-05-10T13:10:47;17.10;75.50
30594;DHT22;33199;47.590;8.300;2023-05-10T13:13:12;17.10;75.40
30594;DHT22;33199;47.590;8.300;2023-05-10T13:15:38;17.10;75.40
30594;DHT22;33199;47.590;8.300;2023-05-10T13:18:04;17.10;75.50
30594;DHT22;33199;47.590;8.300;2023-05-10T13:20:29;17.10;75.50
30594;DHT22;33199;47.590;8.300;2023-05-10T13:22:55;17.10;75.50
30594;DHT22;33199;47.590;8.300;2023-05-10T13:25:20;17.10;75.50
30594;DHT22;33199;47.590;8.300;2023-05-10T13:27:46;17.10;75.50
30594;DHT22;33199;47.590;8.300;2023-05-10T13:30:11;17.10;75.50
30594;DHT22;33199;47.590;8.300;2023-05-10T13:32:37;17.10;75.60
30594;DHT22;33199;47.590;8.300;2023-05-10T13:35:03;17.10;75.50
30594;DHT22;33199;47.590;8.300;2023-05-10T13:37:29;17.10;75.70
30594;DHT22;33199;47.590;8.300;2023-05-10T13:39:56;17.10;75.60
30594;DHT22;33199;47.590;8.300;2023-05-10T13:42:22;17.10;75.60
30594;DHT22;33199;47.590;8.300;2023-05-10T13:44:48;17.10;75.70
30594;DHT22;33199;47.590;8.300;2023-05-10T13:47:13;17.10;75.60
30594;DHT22;33199;47.590;8.300;2023-05-10T13:49:38;17.10;75.50
30594;DHT22;33199;47.590;8.300;2023-05-10T13:52:04;17.10;75.60
30594;DHT22;33199;47.590;8.300;2023-05-10T13:54:41;17.10;75.50
30594;DHT22;33199;47.590;8.300;2023-05-10T13:57:06;17.10;75.60
30594;DHT22;33199;47.590;8.300;2023-05-10T13:59:32;17.10;75.50
30594;DHT22;33199;47.590;8.300;2023-05-10T14:01:58;17.10;75.50
30594;DHT22;33199;47.590;8.300;2023-05-10T14:04:24;17.10;75.40
30594;DHT22;33199;47.590;8.300;2023-05-10T14:06:49;17.10;75.30
30594;DHT22;33199;47.590;8.300;2023-05-10T14:09:15;17.10;75.30
30594;DHT22;33199;47.590;8.300;2023-05-10T14:11:41;17.10;75.40
30594;DHT22;33199;47.590;8.300;2023-05-10T14:14:11;17.10;75.30
30594;DHT22;33199;47.590;8.300;2023-05-10T14:16:36;17.10;75.10
30594;DHT22;33199;47.590;8.300;2023-05-10T14:19:02;17.10;75.30
30594;DHT22;33199;47.590;8.300;2023-05-10T14:21:28;17.10;75.30
30594;DHT22;33199;47.590;8.300;2023-05-10T14:23:56;17.10;75.30
30594;DHT22;33199;47.590;8.300;2023-05-10T14:26:22;17.10;75.30
30594;DHT22;33199;47.590;8.300;2023-05-10T14:28:47;17.20;75.20
30594;DHT22;33199;47.590;8.300;2023-05-10T14:31:13;17.20;75.50
30594;DHT22;33199;47.590;8.300;2023-05-10T14:33:39;17.20;75.40
30594;DHT22;33199;47.590;8.300;2023-05-10T14:36:05;17.20;75.30
30594;DHT22;33199;47.590;8.300;2023-05-10T14:38:31;17.20;75.20
30594;DHT22;33199;47.590;8.300;2023-05-10T14:40:56;17.20;75.00
30594;DHT22;33199;47.590;8.300;2023-05-10T14:43:22;17.20;75.10
30594;DHT22;33199;47.590;8.300;2023-05-10T14:45:48;17.20;75.00
30594;DHT22;33199;47.590;8.300;2023-05-10T14:48:13;17.20;75.20
30594;DHT22;33199;47.590;8.300;2023-05-10T14:50:42;17.20;75.20
30594;DHT22;33199;47.590;8.300;2023-05-10T14:53:08;17.20;75.00
30594;DHT22;33199;47.590;8.300;2023-05-10T14:55:33;17.20;75.20
30594;DHT22;33199;47.590;8.300;2023-05-10T14:58:01;17.20;75.10
30594;DHT22;33199;47.590;8.300;2023-05-10T15:00:27;17.20;75.30
30594;DHT22;33199;47.590;8.300;2023-05-10T15:02:53;17.20;75.20
30594;DHT22;33199;47.590;8.300;2023-05-10T15:05:18;17.20;75.30
30594;DHT22;33199;47.590;8.300;2023-05-10T15:07:44;17.20;75.10
30594;DHT22;33199;47.590;8.300;2023-05-10T15:10:09;17.20;75.00
30594;DHT22;33199;47.590;8.300;2023-05-10T15:12:35;17.20;75.00
30594;DHT22;33199;47.590;8.300;2023-05-10T15:15:01;17.20;75.20
30594;DHT22;33199;47.590;8.300;2023-05-10T15:17:27;17.20;75.00
30594;DHT22;33199;47.590;8.300;2023-05-10T15:19:52;17.20;75.10
30594;DHT22;33199;47.590;8.300;2023-05-10T15:22:18;17.20;75.10
30594;DHT22;33199;47.590;8.300;2023-05-10T15:24:44;17.20;75.20
30594;DHT22;33199;47.590;8.300;2023-05-10T15:27:09;17.20;75.20
30594;DHT22;33199;47.590;8.300;2023-05-10T15:29:34;17.20;75.20
30594;DHT22;33199;47.590;8.300;2023-05-10T15:32:01;17.20;75.10
30594;DHT22;33199;47.590;8.300;2023-05-10T15:34:26;17.20;75.10
30594;DHT22;33199;47.590;8.300;2023-05-10T15:36:52;17.20;75.10
30594;DHT22;33199;47.590;8.300;2023-05-10T15:39:18;17.20;75.20
30594;DHT22;33199;47.590;8.300;2023-05-10T15:41:43;17.20;75.30
30594;DHT22;33199;47.590;8.300;2023-05-10T15:44:09;17.20;75.20
30594;DHT22;33199;47.590;8.300;2023-05-10T15:46:34;17.20;75.20
30594;DHT22;33199;47.590;8.300;2023-05-10T15:49:00;17.20;75.20
30594;DHT22;33199;47.590;8.300;2023-05-10T15:51:25;17.20;75.20
30594;DHT22;33199;47.590;8.300;2023-05-10T15:53:51;17.20;75.20
30594;DHT22;33199;47.590;8.300;2023-05-10T15:56:16;17.20;75.40